createdAt,value
2022-10-18T00:02:08.126Z,9.50
2022-10-18T00:04:35.082Z,9.50
2022-10-18T00:07:01.958Z,9.50
2022-10-18T00:09:28.845Z,9.50
2022-10-18T00:11:56.084Z,9.50
2022-10-18T00:14:22.971Z,9.50
2022-10-18T00:16:49.812Z,9.50
2022-10-18T00:19:16.662Z,9.40
2022-10-18T00:24:10.249Z,9.40
2022-10-18T00:26:37.091Z,9.30
2022-10-18T00:29:05.064Z,9.30
2022-10-18T00:31:36.768Z,9.20
2022-10-18T00:34:14.921Z,9.20
2022-10-18T00:36:42.028Z,9.20
2022-10-18T00:39:09.521Z,9.10
2022-10-18T00:41:37.994Z,9.10
2022-10-18T00:44:27.798Z,9.10
2022-10-18T00:46:58.008Z,9.10
2022-10-18T00:49:37.100Z,9.00
2022-10-18T00:52:12.023Z,9.00
2022-10-18T00:54:40.465Z,8.90
2022-10-18T00:57:07.491Z,8.90
2022-10-18T00:59:34.591Z,8.90
2022-10-18T01:02:01.939Z,8.80
2022-10-18T01:04:28.812Z,8.80
2022-10-18T01:06:57.954Z,8.80
2022-10-18T01:09:58.695Z,8.80
2022-10-18T01:12:33.224Z,8.70
2022-10-18T01:15:32.231Z,8.70
2022-10-18T01:18:01.796Z,8.60
2022-10-18T01:20:53.956Z,8.60
2022-10-18T01:23:34.124Z,8.60
2022-10-18T01:26:27.057Z,8.60
2022-10-18T01:29:13.759Z,8.50
2022-10-18T01:31:49.949Z,8.50
2022-10-18T01:34:17.870Z,8.50
2022-10-18T01:36:49.101Z,8.50
2022-10-18T01:39:17.999Z,8.40
2022-10-18T01:41:44.994Z,8.40
2022-10-18T01:44:16.123Z,8.40
2022-10-18T01:46:43.024Z,8.30
2022-10-18T01:49:09.853Z,8.40
2022-10-18T01:51:36.651Z,8.40
2022-10-18T01:54:03.524Z,8.30
2022-10-18T01:56:32.586Z,8.30
2022-10-18T01:59:28.113Z,8.30
2022-10-18T02:02:13.703Z,8.30
2022-10-18T02:04:54.373Z,8.30
2022-10-18T02:07:42.079Z,8.30
2022-10-18T02:10:32.181Z,8.30
2022-10-18T02:12:58.978Z,8.30
2022-10-18T02:15:33.078Z,8.30
2022-10-18T02:17:59.997Z,8.30
2022-10-18T02:20:26.817Z,8.20
2022-10-18T02:22:54.865Z,8.20
2022-10-18T02:25:24.058Z,8.20
2022-10-18T02:27:51.348Z,8.10
2022-10-18T02:30:18.358Z,8.10
2022-10-18T02:32:57.310Z,8.10
2022-10-18T02:35:40.013Z,8.00
2022-10-18T02:38:07.066Z,8.00
2022-10-18T02:40:33.887Z,8.00
2022-10-18T02:43:00.669Z,8.00
2022-10-18T02:45:27.521Z,7.90
2022-10-18T02:47:54.453Z,7.90
2022-10-18T02:50:21.277Z,7.90
2022-10-18T02:52:48.080Z,7.90
2022-10-18T02:55:15.692Z,7.90
2022-10-18T02:57:42.539Z,7.80
2022-10-18T03:00:09.983Z,7.80
2022-10-18T03:02:36.958Z,7.80
2022-10-18T03:05:04.067Z,7.80
2022-10-18T03:07:31.142Z,7.80
2022-10-18T03:09:58.286Z,7.70
2022-10-18T03:12:25.101Z,7.70
2022-10-18T03:14:51.936Z,7.70
2022-10-18T03:17:18.835Z,7.70
2022-10-18T03:19:45.718Z,7.60
2022-10-18T03:22:12.578Z,7.60
2022-10-18T03:24:39.405Z,7.60
2022-10-18T03:27:06.285Z,7.60
2022-10-18T03:29:33.191Z,7.50
2022-10-18T03:32:00.000Z,7.50
2022-10-18T03:34:26.790Z,7.50
2022-10-18T03:36:54.966Z,7.50
2022-10-18T03:39:21.824Z,7.50
2022-10-18T03:41:48.661Z,7.50
2022-10-18T03:44:15.542Z,7.50
2022-10-18T03:46:42.453Z,7.50
2022-10-18T03:49:09.315Z,7.50
2022-10-18T03:51:36.109Z,7.50
2022-10-18T03:54:03.064Z,7.40
2022-10-18T03:56:29.920Z,7.40
2022-10-18T03:58:57.284Z,7.40
2022-10-18T04:01:24.209Z,7.30
2022-10-18T04:03:51.077Z,7.30
2022-10-18T04:06:17.891Z,7.30
2022-10-18T04:08:44.722Z,7.30
2022-10-18T04:11:12.503Z,7.20
2022-10-18T04:13:39.311Z,7.20
2022-10-18T04:16:06.309Z,7.20
2022-10-18T04:18:33.196Z,7.20
2022-10-18T04:21:00.046Z,7.20
2022-10-18T04:23:26.919Z,7.20
2022-10-18T04:25:53.750Z,7.20
2022-10-18T04:28:20.634Z,7.10
2022-10-18T04:30:53.430Z,7.10
2022-10-18T04:33:20.532Z,7.10
2022-10-18T04:35:47.520Z,7.00
2022-10-18T04:38:14.843Z,7.00
2022-10-18T04:40:41.664Z,7.00
2022-10-18T04:43:08.533Z,7.00
2022-10-18T04:45:35.365Z,7.00
2022-10-18T04:48:02.280Z,7.00
2022-10-18T04:50:29.100Z,7.00
2022-10-18T04:52:55.972Z,7.00
2022-10-18T04:55:22.898Z,6.90
2022-10-18T04:57:49.681Z,6.90
2022-10-18T05:00:16.575Z,6.90
2022-10-18T05:02:43.474Z,6.90
2022-10-18T05:05:13.256Z,6.80
2022-10-18T05:07:41.102Z,6.80
2022-10-18T05:10:08.662Z,6.80
2022-10-18T05:12:35.666Z,6.80
2022-10-18T05:15:02.512Z,6.80
2022-10-18T05:17:29.334Z,6.80
2022-10-18T05:19:56.176Z,6.80
2022-10-18T05:22:23.014Z,6.80
2022-10-18T05:24:49.829Z,6.80
2022-10-18T05:27:16.668Z,6.80
2022-10-18T05:29:43.559Z,6.70
2022-10-18T05:32:10.427Z,6.70
2022-10-18T05:34:37.268Z,6.70
2022-10-18T05:37:04.146Z,6.70
2022-10-18T05:39:31.029Z,6.70
2022-10-18T05:41:58.282Z,6.70
2022-10-18T05:44:25.183Z,6.70
2022-10-18T05:46:52.256Z,6.70
2022-10-18T05:49:19.229Z,6.70
2022-10-18T05:51:46.092Z,6.60
2022-10-18T05:54:13.008Z,6.60
2022-10-18T05:56:40.322Z,6.60
2022-10-18T05:59:12.028Z,6.60
2022-10-18T06:01:39.812Z,6.60
2022-10-18T06:04:06.800Z,6.50
2022-10-18T06:06:33.909Z,6.60
2022-10-18T06:09:00.795Z,6.60
2022-10-18T06:11:27.701Z,6.50
2022-10-18T06:13:54.535Z,6.50
2022-10-18T06:16:22.343Z,6.50
2022-10-18T06:18:53.007Z,6.50
2022-10-18T06:21:19.884Z,6.50
2022-10-18T06:23:51.512Z,6.50
2022-10-18T06:26:18.424Z,6.40
2022-10-18T06:28:45.334Z,6.40
2022-10-18T06:31:12.683Z,6.30
2022-10-18T06:33:39.540Z,6.30
2022-10-18T06:36:07.864Z,6.40
2022-10-18T06:38:35.033Z,6.40
2022-10-18T06:41:01.960Z,6.50
2022-10-18T06:43:28.906Z,6.50
2022-10-18T06:45:55.778Z,6.50
2022-10-18T06:48:22.940Z,6.50
2022-10-18T06:50:57.159Z,6.50
2022-10-18T06:53:28.560Z,6.60
2022-10-18T06:56:03.603Z,6.50
2022-10-18T06:58:30.652Z,6.60
2022-10-18T07:00:57.473Z,6.60
2022-10-18T07:03:24.419Z,6.60
2022-10-18T07:05:51.243Z,6.60
2022-10-18T07:08:18.185Z,6.60
2022-10-18T07:10:53.094Z,6.60
2022-10-18T07:13:32.141Z,6.70
2022-10-18T07:16:06.575Z,6.70
2022-10-18T07:18:37.149Z,6.80
2022-10-18T07:21:05.171Z,6.80
2022-10-18T07:23:35.832Z,6.90
2022-10-18T07:26:03.748Z,6.90
2022-10-18T07:28:31.264Z,6.90
2022-10-18T07:31:01.294Z,7.00
2022-10-18T07:33:32.094Z,7.00
2022-10-18T07:36:03.352Z,7.10
2022-10-18T07:38:30.219Z,7.20
2022-10-18T07:40:58.722Z,7.30
2022-10-18T07:43:25.732Z,7.30
2022-10-18T07:45:56.673Z,7.40
2022-10-18T07:48:23.709Z,7.50
2022-10-18T07:50:50.585Z,7.50
2022-10-18T07:53:17.460Z,7.60
2022-10-18T07:55:44.848Z,7.60
2022-10-18T07:58:12.158Z,7.80
2022-10-18T08:00:39.527Z,7.80
2022-10-18T08:03:06.475Z,7.90
2022-10-18T08:08:07.937Z,8.00
2022-10-18T08:10:35.488Z,8.00
2022-10-18T08:13:02.300Z,8.10
2022-10-18T08:15:29.138Z,8.20
2022-10-18T08:17:55.930Z,8.20
2022-10-18T08:20:31.185Z,8.30
2022-10-18T08:23:00.534Z,8.40
2022-10-18T08:25:28.449Z,8.40
2022-10-18T08:27:55.350Z,8.50
2022-10-18T08:30:23.476Z,8.60
2022-10-18T08:32:50.259Z,8.70
2022-10-18T08:35:17.174Z,8.80
2022-10-18T08:37:45.419Z,8.90
2022-10-18T08:40:15.448Z,9.00
2022-10-18T08:42:48.215Z,9.10
2022-10-18T08:45:30.130Z,9.30
2022-10-18T08:48:01.961Z,9.40
2022-10-18T08:50:36.949Z,9.50
2022-10-18T08:53:06.533Z,9.60
2022-10-18T08:55:39.899Z,9.70
2022-10-18T08:58:26.939Z,9.80
2022-10-18T09:01:05.843Z,10.10
2022-10-18T09:04:01.264Z,10.30
2022-10-18T09:06:34.797Z,10.40
2022-10-18T09:09:26.216Z,10.60
2022-10-18T09:12:18.206Z,10.70
2022-10-18T09:14:54.019Z,10.90
2022-10-18T09:17:27.127Z,11.00
2022-10-18T09:20:24.211Z,11.20
2022-10-18T09:22:53.050Z,11.30
2022-10-18T09:25:23.912Z,11.50
2022-10-18T09:27:54.984Z,11.60
2022-10-18T09:31:00.128Z,11.70
2022-10-18T09:33:35.949Z,11.80
2022-10-18T09:36:05.318Z,12.00
2022-10-18T09:38:46.640Z,12.00
2022-10-18T09:41:35.466Z,12.10
2022-10-18T09:44:14.237Z,12.20
2022-10-18T09:46:49.954Z,12.20
2022-10-18T09:49:24.003Z,12.30
2022-10-18T09:51:51.359Z,12.30
2022-10-18T09:54:38.337Z,12.30
2022-10-18T09:57:12.457Z,12.40
2022-10-18T09:59:47.374Z,12.50
2022-10-18T10:02:16.140Z,12.50
2022-10-18T10:04:43.039Z,12.70
2022-10-18T10:07:13.859Z,12.70
2022-10-18T10:09:44.917Z,12.80
2022-10-18T10:12:32.140Z,12.90
2022-10-18T10:15:18.184Z,13.00
2022-10-18T10:17:55.637Z,13.00
2022-10-18T10:20:24.109Z,13.10
2022-10-18T10:22:51.049Z,13.10
2022-10-18T10:25:31.787Z,13.10
2022-10-18T10:28:07.069Z,13.10
2022-10-18T10:30:35.425Z,13.20
2022-10-18T10:33:02.451Z,13.30
2022-10-18T10:35:52.506Z,13.30
2022-10-18T10:38:28.234Z,13.40
2022-10-18T10:40:55.308Z,13.40
2022-10-18T10:43:37.525Z,13.50
2022-10-18T10:46:09.059Z,13.50
2022-10-18T10:48:41.929Z,13.60
2022-10-18T10:51:11.743Z,13.70
2022-10-18T10:54:04.219Z,13.70
2022-10-18T10:56:36.031Z,13.80
2022-10-18T10:59:20.112Z,14.00
2022-10-18T11:01:51.831Z,14.00
2022-10-18T11:04:29.533Z,14.10
2022-10-18T11:07:02.346Z,14.10
2022-10-18T11:09:48.026Z,14.10
2022-10-18T11:12:38.925Z,14.20
2022-10-18T11:15:14.326Z,14.30
2022-10-18T11:17:47.818Z,14.40
2022-10-18T11:20:38.989Z,14.40
2022-10-18T11:23:11.701Z,14.50
2022-10-18T11:25:47.156Z,14.60
2022-10-18T11:28:24.522Z,14.60
2022-10-18T11:30:59.325Z,14.70
2022-10-18T11:34:10.195Z,14.80
2022-10-18T11:37:02.255Z,14.80
2022-10-18T11:39:42.569Z,14.80
2022-10-18T11:42:20.778Z,14.90
2022-10-18T11:44:57.405Z,14.90
2022-10-18T11:47:42.505Z,15.00
2022-10-18T11:50:27.427Z,15.10
2022-10-18T11:52:55.065Z,15.10
2022-10-18T11:55:33.345Z,15.20
2022-10-18T11:58:25.651Z,15.20
2022-10-18T12:00:56.532Z,15.30
2022-10-18T12:03:44.567Z,15.20
2022-10-18T12:06:16.997Z,15.30
2022-10-18T12:08:52.208Z,15.40
2022-10-18T12:11:28.514Z,15.40
2022-10-18T12:13:58.933Z,15.40
2022-10-18T12:16:49.531Z,15.40
2022-10-18T12:19:27.083Z,15.40
2022-10-18T12:21:58.411Z,15.50
2022-10-18T12:24:27.918Z,15.50
2022-10-18T12:27:00.799Z,15.60
2022-10-18T12:29:33.332Z,15.60
2022-10-18T12:32:03.360Z,15.70
2022-10-18T12:34:35.518Z,15.70
2022-10-18T12:37:24.834Z,15.80
2022-10-18T12:42:44.230Z,15.80
2022-10-18T12:45:16.943Z,15.80
2022-10-18T12:47:43.798Z,15.70
2022-10-18T12:50:31.489Z,15.80
2022-10-18T12:53:24.424Z,15.80
2022-10-18T12:55:51.829Z,15.90
2022-10-18T12:58:21.937Z,15.90
2022-10-18T13:00:49.020Z,15.90
2022-10-18T13:03:19.098Z,16.00
2022-10-18T13:05:54.404Z,16.10
2022-10-18T13:08:28.214Z,16.10
2022-10-18T13:11:10.391Z,16.10
2022-10-18T13:14:14.867Z,16.10
2022-10-18T13:17:18.936Z,16.20
2022-10-18T13:20:07.619Z,16.20
2022-10-18T13:22:53.665Z,16.20
2022-10-18T13:25:52.562Z,16.20
2022-10-18T13:28:27.980Z,16.20
2022-10-18T13:31:11.343Z,16.30
2022-10-18T13:33:39.532Z,16.30
2022-10-18T13:36:32.424Z,16.40
2022-10-18T13:39:02.966Z,16.40
2022-10-18T13:41:34.347Z,16.40
2022-10-18T13:44:02.489Z,16.40
2022-10-18T13:46:36.311Z,16.40
2022-10-18T13:49:15.089Z,16.40
2022-10-18T13:51:52.936Z,16.40
2022-10-18T13:54:38.653Z,16.40
2022-10-18T13:57:11.685Z,16.40
2022-10-18T14:00:04.237Z,16.40
2022-10-18T14:02:59.402Z,16.40
2022-10-18T14:05:45.081Z,16.40
2022-10-18T14:08:20.977Z,16.40
2022-10-18T14:11:19.348Z,16.50
2022-10-18T14:13:52.797Z,16.50
2022-10-18T14:16:48.570Z,16.40
2022-10-18T14:19:39.580Z,16.40
2022-10-18T14:22:12.412Z,16.50
2022-10-18T14:24:40.794Z,16.50
2022-10-18T14:27:32.490Z,16.50
2022-10-18T14:30:19.045Z,16.50
2022-10-18T14:32:50.331Z,16.50
2022-10-18T14:35:34.566Z,16.50
2022-10-18T14:38:02.135Z,16.50
2022-10-18T14:40:36.277Z,16.50
2022-10-18T14:43:13.929Z,16.50
2022-10-18T14:45:41.813Z,16.40
2022-10-18T14:48:21.223Z,16.40
2022-10-18T14:50:50.776Z,16.40
2022-10-18T14:53:18.948Z,16.40
2022-10-18T14:55:53.967Z,16.40
2022-10-18T14:58:20.844Z,16.40
2022-10-18T15:00:48.617Z,16.40
2022-10-18T15:03:16.310Z,16.40
2022-10-18T15:05:59.967Z,16.40
2022-10-18T15:08:37.208Z,16.40
2022-10-18T15:11:04.252Z,16.40
2022-10-18T15:13:31.856Z,16.40
2022-10-18T15:15:58.712Z,16.30
2022-10-18T15:18:26.456Z,16.30
2022-10-18T15:21:09.705Z,16.30
2022-10-18T15:23:36.604Z,16.20
2022-10-18T15:26:08.391Z,16.10
2022-10-18T15:28:37.639Z,16.10
2022-10-18T15:31:04.982Z,16.10
2022-10-18T15:33:34.740Z,16.10
2022-10-18T15:36:11.844Z,16.00
2022-10-18T15:38:38.757Z,16.00
2022-10-18T15:41:57.038Z,15.90
2022-10-18T15:44:23.930Z,15.90
2022-10-18T15:46:53.181Z,15.80
2022-10-18T15:49:44.351Z,15.80
2022-10-18T15:52:39.457Z,15.80
2022-10-18T15:55:30.996Z,15.70
2022-10-18T15:58:39.259Z,15.70
2022-10-18T16:01:07.175Z,15.60
2022-10-18T16:03:38.606Z,15.60
2022-10-18T16:06:07.157Z,15.50
2022-10-18T16:08:41.113Z,15.40
2022-10-18T16:11:15.969Z,15.40
2022-10-18T16:13:43.128Z,15.40
2022-10-18T16:16:18.159Z,15.40
2022-10-18T16:18:45.166Z,15.30
2022-10-18T16:21:27.422Z,15.30
2022-10-18T16:23:54.400Z,15.30
2022-10-18T16:26:21.590Z,15.20
2022-10-18T16:28:48.812Z,15.10
2022-10-18T16:31:19.290Z,15.10
2022-10-18T16:33:46.418Z,15.00
2022-10-18T16:36:17.625Z,15.00
2022-10-18T16:38:44.823Z,14.90
2022-10-18T16:41:13.361Z,14.90
2022-10-18T16:43:40.267Z,14.80
2022-10-18T16:46:07.717Z,14.70
2022-10-18T16:48:34.808Z,14.70
2022-10-18T16:51:02.067Z,14.70
2022-10-18T16:53:28.963Z,14.60
2022-10-18T16:55:59.303Z,14.50
2022-10-18T16:58:26.770Z,14.50
2022-10-18T17:00:53.944Z,14.40
2022-10-18T17:03:21.032Z,14.40
2022-10-18T17:05:47.974Z,14.40
2022-10-18T17:08:25.498Z,14.30
2022-10-18T17:10:53.737Z,14.30
2022-10-18T17:13:20.845Z,14.30
2022-10-18T17:15:47.745Z,14.20
2022-10-18T17:18:16.845Z,14.20
2022-10-18T17:20:43.912Z,14.10
2022-10-18T17:23:10.820Z,14.10
2022-10-18T17:25:46.370Z,14.00
2022-10-18T17:28:24.832Z,14.00
2022-10-18T17:30:52.264Z,13.90
2022-10-18T17:33:19.097Z,13.90
2022-10-18T17:35:46.019Z,13.80
2022-10-18T17:38:12.958Z,13.80
2022-10-18T17:40:43.083Z,13.80
2022-10-18T17:43:10.376Z,13.80
2022-10-18T17:45:38.017Z,13.70
2022-10-18T17:48:04.826Z,13.70
2022-10-18T17:50:31.684Z,13.70
2022-10-18T17:52:58.728Z,13.70
2022-10-18T17:55:25.647Z,13.60
2022-10-18T17:57:52.484Z,13.60
2022-10-18T18:00:19.392Z,13.60
2022-10-18T18:02:46.831Z,13.50
2022-10-18T18:05:13.672Z,13.50
2022-10-18T18:07:40.574Z,13.40
2022-10-18T18:10:08.547Z,13.40
2022-10-18T18:12:35.659Z,13.40
2022-10-18T18:15:02.695Z,13.40
2022-10-18T18:17:34.349Z,13.40
2022-10-18T18:20:01.687Z,13.40
2022-10-18T18:22:28.733Z,13.30
2022-10-18T18:24:55.602Z,13.30
2022-10-18T18:27:22.456Z,13.30
2022-10-18T18:29:49.960Z,13.20
2022-10-18T18:32:16.828Z,13.20
2022-10-18T18:34:43.721Z,13.20
2022-10-18T18:37:10.630Z,13.20
2022-10-18T18:39:39.376Z,13.10
2022-10-18T18:42:06.949Z,13.10
2022-10-18T18:44:34.139Z,13.10
2022-10-18T18:47:01.517Z,13.10
2022-10-18T18:49:28.537Z,13.10
2022-10-18T18:51:55.521Z,13.10
2022-10-18T18:54:25.421Z,13.10
2022-10-18T18:56:52.296Z,13.10
2022-10-18T18:59:20.201Z,13.00
2022-10-18T19:01:47.184Z,13.10
2022-10-18T19:04:14.532Z,13.10
2022-10-18T19:06:42.958Z,13.00
2022-10-18T19:09:30.215Z,13.10
2022-10-18T19:11:57.162Z,13.00
2022-10-18T19:14:25.384Z,13.00
2022-10-18T19:16:58.853Z,12.90
2022-10-18T19:19:27.576Z,12.90
2022-10-18T19:21:56.070Z,12.90
2022-10-18T19:24:23.859Z,12.80
2022-10-18T19:26:55.340Z,12.80
2022-10-18T19:29:31.697Z,12.80
2022-10-18T19:32:00.115Z,12.80
2022-10-18T19:34:27.744Z,12.80
2022-10-18T19:36:54.772Z,12.80
2022-10-18T19:39:24.361Z,12.80
2022-10-18T19:41:52.153Z,12.80
2022-10-18T19:44:19.216Z,12.80
2022-10-18T19:46:46.441Z,12.80
2022-10-18T19:49:13.262Z,12.70
2022-10-18T19:51:40.159Z,12.70
2022-10-18T19:54:07.077Z,12.70
2022-10-18T19:56:34.070Z,12.70
2022-10-18T19:59:00.958Z,12.80
2022-10-18T20:01:28.363Z,12.80
2022-10-18T20:03:55.431Z,12.80
2022-10-18T20:06:22.355Z,12.80
2022-10-18T20:08:50.111Z,12.80
2022-10-18T20:11:19.332Z,12.80
2022-10-18T20:13:46.217Z,12.80
2022-10-18T20:16:14.195Z,12.80
2022-10-18T20:18:43.281Z,12.80
2022-10-18T20:21:11.302Z,12.80
2022-10-18T20:23:39.021Z,12.90
2022-10-18T20:26:19.800Z,12.80
2022-10-18T20:28:57.096Z,12.80
2022-10-18T20:31:29.415Z,12.80
2022-10-18T20:33:57.897Z,12.70
2022-10-18T20:36:24.914Z,12.70
2022-10-18T20:38:51.817Z,12.70
2022-10-18T20:41:19.865Z,12.70
2022-10-18T20:44:08.503Z,12.70
2022-10-18T20:46:37.100Z,12.70
2022-10-18T20:49:04.851Z,12.70
2022-10-18T20:51:33.709Z,12.70
2022-10-18T20:54:01.571Z,12.70
2022-10-18T20:56:28.545Z,12.70
2022-10-18T20:58:56.617Z,12.70
2022-10-18T21:01:28.125Z,12.70
2022-10-18T21:03:55.995Z,12.70
2022-10-18T21:06:24.650Z,12.70
2022-10-18T21:09:01.784Z,12.70
2022-10-18T21:11:29.560Z,12.70
2022-10-18T21:13:59.644Z,12.70
2022-10-18T21:16:26.974Z,12.70
2022-10-18T21:18:53.905Z,12.70
2022-10-18T21:21:24.467Z,12.70
2022-10-18T21:23:51.805Z,12.70
2022-10-18T21:26:20.502Z,12.70
2022-10-18T21:28:47.588Z,12.60
2022-10-18T21:31:19.658Z,12.70
2022-10-18T21:33:46.702Z,12.70
2022-10-18T21:36:13.873Z,12.70
2022-10-18T21:38:41.244Z,12.70
2022-10-18T21:41:11.951Z,12.70
2022-10-18T21:43:43.489Z,12.70
2022-10-18T21:46:10.493Z,12.70
2022-10-18T21:48:37.824Z,12.70
2022-10-18T21:51:06.619Z,12.70
2022-10-18T21:53:33.735Z,12.70
2022-10-18T21:56:11.839Z,12.70
2022-10-18T21:58:38.885Z,12.70
2022-10-18T22:01:13.199Z,12.70
2022-10-18T22:03:40.203Z,12.70
2022-10-18T22:06:09.518Z,12.70
2022-10-18T22:08:36.489Z,12.70
2022-10-18T22:11:04.262Z,12.70
2022-10-18T22:13:31.110Z,12.70
2022-10-18T22:16:02.014Z,12.70
2022-10-18T22:18:29.375Z,12.70
2022-10-18T22:21:00.340Z,12.70
2022-10-18T22:23:39.563Z,12.70
2022-10-18T22:26:08.711Z,12.60
2022-10-18T22:28:36.265Z,12.60
2022-10-18T22:31:03.223Z,12.60
2022-10-18T22:33:30.110Z,12.60
2022-10-18T22:35:57.054Z,12.60
2022-10-18T22:38:24.107Z,12.60
2022-10-18T22:40:51.882Z,12.50
2022-10-18T22:43:18.814Z,12.50
2022-10-18T22:45:45.669Z,12.50
2022-10-18T22:48:12.504Z,12.50
2022-10-18T22:50:39.586Z,12.50
2022-10-18T22:53:06.488Z,12.50
2022-10-18T22:55:33.417Z,12.40
2022-10-18T22:58:00.279Z,12.40
2022-10-18T23:00:27.466Z,12.40
2022-10-18T23:02:54.307Z,12.40
2022-10-18T23:05:21.119Z,12.40
2022-10-18T23:07:49.271Z,12.40
2022-10-18T23:10:16.181Z,12.30
2022-10-18T23:12:42.978Z,12.40
2022-10-18T23:15:10.237Z,12.30
2022-10-18T23:17:37.455Z,12.30
2022-10-18T23:20:05.461Z,12.30
2022-10-18T23:22:32.559Z,12.30
2022-10-18T23:24:59.723Z,12.30
2022-10-18T23:27:27.893Z,12.20
2022-10-18T23:29:54.717Z,12.20
2022-10-18T23:32:21.613Z,12.20
2022-10-18T23:34:48.451Z,12.20
2022-10-18T23:37:15.300Z,12.20
2022-10-18T23:39:42.161Z,12.10
2022-10-18T23:42:09.020Z,12.20
2022-10-18T23:44:35.848Z,12.20
2022-10-18T23:47:02.664Z,12.10
2022-10-18T23:49:29.505Z,12.10
2022-10-18T23:51:56.345Z,12.10
2022-10-18T23:54:23.205Z,12.10
2022-10-18T23:56:50.061Z,12.10
2022-10-18T23:59:16.898Z,12.20
